sensor_id;sensor_type;location;lat;lon;timestamp;P1;durP1;ratioP1;P2;durP2;ratioP2
62419;SDS011;48460;51.616;5.426;2022-07-29T00:01:34;6.32;;;2.42;;
62419;SDS011;48460;51.616;5.426;2022-07-29T00:03:59;8.43;;;2.65;;
62419;SDS011;48460;51.616;5.426;2022-07-29T00:06:24;5.63;;;2.65;;
62419;SDS011;48460;51.616;5.426;2022-07-29T00:08:50;6.80;;;2.60;;
62419;SDS011;48460;51.616;5.426;2022-07-29T00:11:15;7.85;;;2.70;;
62419;SDS011;48460;51.616;5.426;2022-07-29T00:13:41;5.90;;;2.67;;
62419;SDS011;48460;51.616;5.426;2022-07-29T00:16:06;6.15;;;2.33;;
62419;SDS011;48460;51.616;5.426;2022-07-29T00:18:31;6.88;;;2.70;;
62419;SDS011;48460;51.616;5.426;2022-07-29T00:20:57;6.70;;;2.60;;
62419;SDS011;48460;51.616;5.426;2022-07-29T00:23:22;7.18;;;2.50;;
62419;SDS011;48460;51.616;5.426;2022-07-29T00:25:48;12.35;;;2.95;;
62419;SDS011;48460;51.616;5.426;2022-07-29T00:28:13;4.63;;;2.42;;
62419;SDS011;48460;51.616;5.426;2022-07-29T00:30:39;9.68;;;2.72;;
62419;SDS011;48460;51.616;5.426;2022-07-29T00:33:06;5.78;;;2.53;;
62419;SDS011;48460;51.616;5.426;2022-07-29T00:35:33;6.43;;;2.40;;
62419;SDS011;48460;51.616;5.426;2022-07-29T00:38:15;4.82;;;2.53;;
62419;SDS011;48460;51.616;5.426;2022-07-29T00:40:42;5.95;;;2.45;;
62419;SDS011;48460;51.616;5.426;2022-07-29T00:43:08;5.10;;;2.55;;
62419;SDS011;48460;51.616;5.426;2022-07-29T00:45:34;6.20;;;2.90;;
62419;SDS011;48460;51.616;5.426;2022-07-29T00:48:00;6.28;;;2.50;;
62419;SDS011;48460;51.616;5.426;2022-07-29T00:50:26;6.13;;;2.70;;
62419;SDS011;48460;51.616;5.426;2022-07-29T00:52:52;6.07;;;2.78;;
62419;SDS011;48460;51.616;5.426;2022-07-29T00:55:18;8.13;;;2.55;;
62419;SDS011;48460;51.616;5.426;2022-07-29T00:57:43;8.10;;;2.78;;
62419;SDS011;48460;51.616;5.426;2022-07-29T01:00:17;4.85;;;2.53;;
62419;SDS011;48460;51.616;5.426;2022-07-29T01:02:45;5.95;;;2.80;;
62419;SDS011;48460;51.616;5.426;2022-07-29T01:05:13;5.68;;;2.50;;
62419;SDS011;48460;51.616;5.426;2022-07-29T01:07:39;6.90;;;2.55;;
62419;SDS011;48460;51.616;5.426;2022-07-29T01:10:06;5.13;;;2.50;;
62419;SDS011;48460;51.616;5.426;2022-07-29T01:12:34;6.65;;;2.53;;
62419;SDS011;48460;51.616;5.426;2022-07-29T01:15:02;7.10;;;2.40;;
62419;SDS011;48460;51.616;5.426;2022-07-29T01:17:32;5.68;;;2.40;;
62419;SDS011;48460;51.616;5.426;2022-07-29T01:25:58;5.85;;;2.42;;
62419;SDS011;48460;51.616;5.426;2022-07-29T01:31:02;6.70;;;2.58;;
62419;SDS011;48460;51.616;5.426;2022-07-29T01:33:29;6.00;;;2.70;;
62419;SDS011;48460;51.616;5.426;2022-07-29T01:36:16;6.10;;;2.70;;
62419;SDS011;48460;51.616;5.426;2022-07-29T01:38:46;10.80;;;3.00;;
62419;SDS011;48460;51.616;5.426;2022-07-29T01:41:19;5.50;;;2.55;;
62419;SDS011;48460;51.616;5.426;2022-07-29T01:44:01;7.40;;;2.80;;
62419;SDS011;48460;51.616;5.426;2022-07-29T01:46:37;5.35;;;2.53;;
62419;SDS011;48460;51.616;5.426;2022-07-29T01:49:13;9.52;;;2.70;;
62419;SDS011;48460;51.616;5.426;2022-07-29T01:51:49;7.45;;;2.85;;
62419;SDS011;48460;51.616;5.426;2022-07-29T01:54:30;9.75;;;2.70;;
62419;SDS011;48460;51.616;5.426;2022-07-29T01:57:00;10.13;;;2.70;;
62419;SDS011;48460;51.616;5.426;2022-07-29T01:59:29;4.78;;;2.60;;
62419;SDS011;48460;51.616;5.426;2022-07-29T02:01:57;8.85;;;2.80;;
62419;SDS011;48460;51.616;5.426;2022-07-29T02:04:24;6.05;;;2.70;;
62419;SDS011;48460;51.616;5.426;2022-07-29T02:06:53;7.20;;;2.65;;
62419;SDS011;48460;51.616;5.426;2022-07-29T02:09:22;9.90;;;3.10;;
62419;SDS011;48460;51.616;5.426;2022-07-29T02:11:51;15.65;;;3.28;;
62419;SDS011;48460;51.616;5.426;2022-07-29T02:14:20;7.75;;;2.50;;
62419;SDS011;48460;51.616;5.426;2022-07-29T02:16:48;7.60;;;2.75;;
62419;SDS011;48460;51.616;5.426;2022-07-29T02:19:18;8.38;;;3.10;;
62419;SDS011;48460;51.616;5.426;2022-07-29T02:21:46;8.27;;;2.70;;
62419;SDS011;48460;51.616;5.426;2022-07-29T02:24:12;7.80;;;2.83;;
62419;SDS011;48460;51.616;5.426;2022-07-29T02:26:39;6.72;;;2.47;;
62419;SDS011;48460;51.616;5.426;2022-07-29T02:29:06;9.10;;;3.10;;
62419;SDS011;48460;51.616;5.426;2022-07-29T02:31:34;6.47;;;2.85;;
62419;SDS011;48460;51.616;5.426;2022-07-29T02:34:02;6.05;;;2.50;;
62419;SDS011;48460;51.616;5.426;2022-07-29T02:36:29;7.13;;;2.75;;
62419;SDS011;48460;51.616;5.426;2022-07-29T02:38:57;6.50;;;2.60;;
62419;SDS011;48460;51.616;5.426;2022-07-29T02:44:10;5.15;;;2.67;;
62419;SDS011;48460;51.616;5.426;2022-07-29T02:46:40;5.57;;;2.70;;
62419;SDS011;48460;51.616;5.426;2022-07-29T02:49:18;6.72;;;2.50;;
62419;SDS011;48460;51.616;5.426;2022-07-29T02:52:12;5.50;;;2.47;;
62419;SDS011;48460;51.616;5.426;2022-07-29T02:57:32;7.75;;;2.63;;
62419;SDS011;48460;51.616;5.426;2022-07-29T03:00:03;6.00;;;2.50;;
62419;SDS011;48460;51.616;5.426;2022-07-29T03:02:35;10.15;;;3.00;;
62419;SDS011;48460;51.616;5.426;2022-07-29T03:05:04;6.60;;;2.60;;
62419;SDS011;48460;51.616;5.426;2022-07-29T03:07:31;5.60;;;2.53;;
62419;SDS011;48460;51.616;5.426;2022-07-29T03:09:59;7.03;;;2.60;;
62419;SDS011;48460;51.616;5.426;2022-07-29T03:12:26;6.25;;;2.63;;
62419;SDS011;48460;51.616;5.426;2022-07-29T03:14:52;5.85;;;2.55;;
62419;SDS011;48460;51.616;5.426;2022-07-29T03:17:18;5.72;;;2.58;;
62419;SDS011;48460;51.616;5.426;2022-07-29T03:19:44;10.65;;;2.70;;
62419;SDS011;48460;51.616;5.426;2022-07-29T03:22:10;5.97;;;2.58;;
62419;SDS011;48460;51.616;5.426;2022-07-29T03:24:36;8.93;;;2.80;;
62419;SDS011;48460;51.616;5.426;2022-07-29T03:27:02;5.65;;;2.78;;
62419;SDS011;48460;51.616;5.426;2022-07-29T03:29:29;4.55;;;2.78;;
62419;SDS011;48460;51.616;5.426;2022-07-29T03:31:54;8.00;;;2.80;;
62419;SDS011;48460;51.616;5.426;2022-07-29T03:34:20;5.10;;;2.67;;
62419;SDS011;48460;51.616;5.426;2022-07-29T03:36:45;5.45;;;2.50;;
62419;SDS011;48460;51.616;5.426;2022-07-29T03:39:11;6.65;;;2.80;;
62419;SDS011;48460;51.616;5.426;2022-07-29T03:41:42;10.82;;;2.90;;
62419;SDS011;48460;51.616;5.426;2022-07-29T03:44:11;6.88;;;3.20;;
62419;SDS011;48460;51.616;5.426;2022-07-29T03:46:38;7.50;;;2.80;;
62419;SDS011;48460;51.616;5.426;2022-07-29T03:49:06;5.93;;;2.70;;
62419;SDS011;48460;51.616;5.426;2022-07-29T03:51:33;7.55;;;3.00;;
62419;SDS011;48460;51.616;5.426;2022-07-29T03:54:03;6.45;;;2.90;;
62419;SDS011;48460;51.616;5.426;2022-07-29T03:56:29;7.40;;;3.05;;
62419;SDS011;48460;51.616;5.426;2022-07-29T03:58:59;6.93;;;3.03;;
62419;SDS011;48460;51.616;5.426;2022-07-29T04:01:27;7.35;;;3.20;;
62419;SDS011;48460;51.616;5.426;2022-07-29T04:03:53;7.50;;;3.10;;
62419;SDS011;48460;51.616;5.426;2022-07-29T04:06:19;11.07;;;3.47;;
62419;SDS011;48460;51.616;5.426;2022-07-29T04:08:44;5.75;;;3.13;;
62419;SDS011;48460;51.616;5.426;2022-07-29T04:11:10;6.20;;;3.60;;
62419;SDS011;48460;51.616;5.426;2022-07-29T04:13:36;7.53;;;3.33;;
62419;SDS011;48460;51.616;5.426;2022-07-29T04:16:01;7.63;;;3.22;;
62419;SDS011;48460;51.616;5.426;2022-07-29T04:18:27;10.13;;;3.60;;
62419;SDS011;48460;51.616;5.426;2022-07-29T04:20:53;9.60;;;3.60;;
62419;SDS011;48460;51.616;5.426;2022-07-29T04:23:18;6.85;;;3.63;;
62419;SDS011;48460;51.616;5.426;2022-07-29T04:25:44;7.68;;;3.83;;
62419;SDS011;48460;51.616;5.426;2022-07-29T04:28:09;8.50;;;3.60;;
62419;SDS011;48460;51.616;5.426;2022-07-29T04:30:35;9.23;;;3.60;;
62419;SDS011;48460;51.616;5.426;2022-07-29T04:33:02;9.30;;;3.63;;
62419;SDS011;48460;51.616;5.426;2022-07-29T04:35:29;5.40;;;3.17;;
62419;SDS011;48460;51.616;5.426;2022-07-29T04:37:56;7.43;;;3.55;;
62419;SDS011;48460;51.616;5.426;2022-07-29T04:40:21;7.50;;;3.72;;
62419;SDS011;48460;51.616;5.426;2022-07-29T04:42:47;9.40;;;3.47;;
62419;SDS011;48460;51.616;5.426;2022-07-29T04:45:12;11.50;;;4.22;;
62419;SDS011;48460;51.616;5.426;2022-07-29T04:47:38;8.07;;;3.80;;
62419;SDS011;48460;51.616;5.426;2022-07-29T04:50:04;7.57;;;3.50;;
62419;SDS011;48460;51.616;5.426;2022-07-29T04:52:32;10.13;;;3.67;;
62419;SDS011;48460;51.616;5.426;2022-07-29T04:54:57;11.48;;;3.90;;
62419;SDS011;48460;51.616;5.426;2022-07-29T04:57:22;7.53;;;3.70;;
62419;SDS011;48460;51.616;5.426;2022-07-29T04:59:48;8.48;;;3.58;;
62419;SDS011;48460;51.616;5.426;2022-07-29T05:02:14;7.90;;;3.80;;
62419;SDS011;48460;51.616;5.426;2022-07-29T05:04:39;7.35;;;3.97;;
62419;SDS011;48460;51.616;5.426;2022-07-29T05:07:05;8.90;;;3.50;;
62419;SDS011;48460;51.616;5.426;2022-07-29T05:09:30;5.75;;;3.83;;
62419;SDS011;48460;51.616;5.426;2022-07-29T05:11:57;7.38;;;3.88;;
62419;SDS011;48460;51.616;5.426;2022-07-29T05:14:22;8.07;;;3.88;;
62419;SDS011;48460;51.616;5.426;2022-07-29T05:16:48;12.75;;;4.32;;
62419;SDS011;48460;51.616;5.426;2022-07-29T05:19:16;9.30;;;4.18;;
62419;SDS011;48460;51.616;5.426;2022-07-29T05:21:41;8.02;;;4.03;;
62419;SDS011;48460;51.616;5.426;2022-07-29T05:24:07;8.73;;;4.13;;
62419;SDS011;48460;51.616;5.426;2022-07-29T05:26:32;7.78;;;4.40;;
62419;SDS011;48460;51.616;5.426;2022-07-29T05:28:58;8.25;;;4.20;;
62419;SDS011;48460;51.616;5.426;2022-07-29T05:31:23;11.55;;;4.35;;
62419;SDS011;48460;51.616;5.426;2022-07-29T05:33:49;10.13;;;4.28;;
62419;SDS011;48460;51.616;5.426;2022-07-29T05:36:14;9.20;;;4.22;;
62419;SDS011;48460;51.616;5.426;2022-07-29T05:38:39;9.40;;;4.28;;
62419;SDS011;48460;51.616;5.426;2022-07-29T05:41:11;10.90;;;4.20;;
62419;SDS011;48460;51.616;5.426;2022-07-29T05:43:36;5.95;;;4.10;;
62419;SDS011;48460;51.616;5.426;2022-07-29T05:46:02;13.65;;;4.32;;
62419;SDS011;48460;51.616;5.426;2022-07-29T05:48:27;7.43;;;3.90;;
62419;SDS011;48460;51.616;5.426;2022-07-29T05:50:53;9.60;;;4.20;;
62419;SDS011;48460;51.616;5.426;2022-07-29T05:53:18;12.05;;;4.40;;
62419;SDS011;48460;51.616;5.426;2022-07-29T05:55:43;9.38;;;3.90;;
62419;SDS011;48460;51.616;5.426;2022-07-29T05:58:09;7.82;;;4.30;;
62419;SDS011;48460;51.616;5.426;2022-07-29T06:00:34;9.70;;;4.13;;
62419;SDS011;48460;51.616;5.426;2022-07-29T06:03:00;11.15;;;4.10;;
62419;SDS011;48460;51.616;5.426;2022-07-29T06:05:25;7.10;;;4.28;;
62419;SDS011;48460;51.616;5.426;2022-07-29T06:07:50;8.82;;;4.45;;
62419;SDS011;48460;51.616;5.426;2022-07-29T06:10:16;12.38;;;4.65;;
62419;SDS011;48460;51.616;5.426;2022-07-29T06:12:41;7.88;;;4.60;;
62419;SDS011;48460;51.616;5.426;2022-07-29T06:15:07;6.97;;;4.00;;
62419;SDS011;48460;51.616;5.426;2022-07-29T06:17:33;8.43;;;4.60;;
62419;SDS011;48460;51.616;5.426;2022-07-29T06:19:58;6.13;;;3.80;;
62419;SDS011;48460;51.616;5.426;2022-07-29T06:22:24;11.70;;;4.20;;
62419;SDS011;48460;51.616;5.426;2022-07-29T06:24:49;7.72;;;4.32;;
62419;SDS011;48460;51.616;5.426;2022-07-29T06:27:14;9.05;;;4.53;;
62419;SDS011;48460;51.616;5.426;2022-07-29T06:29:41;11.45;;;4.50;;
62419;SDS011;48460;51.616;5.426;2022-07-29T06:32:06;8.40;;;4.20;;
62419;SDS011;48460;51.616;5.426;2022-07-29T06:34:34;7.88;;;4.28;;
62419;SDS011;48460;51.616;5.426;2022-07-29T06:36:59;9.23;;;4.20;;
62419;SDS011;48460;51.616;5.426;2022-07-29T06:39:25;8.30;;;4.38;;
62419;SDS011;48460;51.616;5.426;2022-07-29T06:41:52;8.75;;;4.38;;
62419;SDS011;48460;51.616;5.426;2022-07-29T06:44:18;10.05;;;4.70;;
62419;SDS011;48460;51.616;5.426;2022-07-29T06:46:43;11.48;;;4.45;;
62419;SDS011;48460;51.616;5.426;2022-07-29T06:49:09;10.38;;;4.72;;
62419;SDS011;48460;51.616;5.426;2022-07-29T06:51:35;10.27;;;4.30;;
62419;SDS011;48460;51.616;5.426;2022-07-29T06:54:02;8.30;;;4.07;;
62419;SDS011;48460;51.616;5.426;2022-07-29T06:56:30;9.75;;;4.85;;
62419;SDS011;48460;51.616;5.426;2022-07-29T06:58:58;9.80;;;4.65;;
62419;SDS011;48460;51.616;5.426;2022-07-29T07:01:23;8.13;;;4.22;;
62419;SDS011;48460;51.616;5.426;2022-07-29T07:03:49;8.02;;;4.30;;
62419;SDS011;48460;51.616;5.426;2022-07-29T07:06:14;9.10;;;4.25;;
62419;SDS011;48460;51.616;5.426;2022-07-29T07:08:40;8.60;;;4.38;;
62419;SDS011;48460;51.616;5.426;2022-07-29T07:11:05;11.98;;;4.05;;
62419;SDS011;48460;51.616;5.426;2022-07-29T07:13:32;8.98;;;4.13;;
62419;SDS011;48460;51.616;5.426;2022-07-29T07:15:59;9.43;;;4.20;;
62419;SDS011;48460;51.616;5.426;2022-07-29T07:18:25;7.60;;;4.40;;
62419;SDS011;48460;51.616;5.426;2022-07-29T07:20:51;6.63;;;4.30;;
62419;SDS011;48460;51.616;5.426;2022-07-29T07:23:16;12.85;;;4.70;;
62419;SDS011;48460;51.616;5.426;2022-07-29T07:25:41;11.45;;;4.32;;
62419;SDS011;48460;51.616;5.426;2022-07-29T07:28:07;9.52;;;4.50;;
62419;SDS011;48460;51.616;5.426;2022-07-29T07:30:32;10.88;;;4.65;;
62419;SDS011;48460;51.616;5.426;2022-07-29T07:32:59;10.60;;;4.97;;
62419;SDS011;48460;51.616;5.426;2022-07-29T07:35:24;9.63;;;4.68;;
62419;SDS011;48460;51.616;5.426;2022-07-29T07:37:52;7.45;;;4.35;;
62419;SDS011;48460;51.616;5.426;2022-07-29T07:40:18;11.27;;;4.70;;
62419;SDS011;48460;51.616;5.426;2022-07-29T07:42:44;11.80;;;4.53;;
62419;SDS011;48460;51.616;5.426;2022-07-29T07:45:09;11.82;;;4.40;;
62419;SDS011;48460;51.616;5.426;2022-07-29T07:47:36;9.57;;;4.53;;
62419;SDS011;48460;51.616;5.426;2022-07-29T07:50:03;13.70;;;4.40;;
62419;SDS011;48460;51.616;5.426;2022-07-29T07:52:29;12.60;;;4.75;;
62419;SDS011;48460;51.616;5.426;2022-07-29T07:54:55;11.65;;;4.25;;
62419;SDS011;48460;51.616;5.426;2022-07-29T07:57:20;12.93;;;4.80;;
62419;SDS011;48460;51.616;5.426;2022-07-29T07:59:45;10.15;;;4.80;;
62419;SDS011;48460;51.616;5.426;2022-07-29T08:02:11;11.45;;;4.47;;
62419;SDS011;48460;51.616;5.426;2022-07-29T08:04:36;10.70;;;4.40;;
62419;SDS011;48460;51.616;5.426;2022-07-29T08:07:05;10.80;;;4.47;;
62419;SDS011;48460;51.616;5.426;2022-07-29T08:09:30;8.45;;;4.60;;
62419;SDS011;48460;51.616;5.426;2022-07-29T08:11:56;7.80;;;4.60;;
62419;SDS011;48460;51.616;5.426;2022-07-29T08:14:23;8.60;;;4.50;;
62419;SDS011;48460;51.616;5.426;2022-07-29T08:16:48;12.02;;;4.65;;
62419;SDS011;48460;51.616;5.426;2022-07-29T08:19:14;12.18;;;4.82;;
62419;SDS011;48460;51.616;5.426;2022-07-29T08:21:39;12.73;;;4.90;;
62419;SDS011;48460;51.616;5.426;2022-07-29T08:24:05;10.35;;;4.90;;
62419;SDS011;48460;51.616;5.426;2022-07-29T08:26:50;10.00;;;4.60;;
62419;SDS011;48460;51.616;5.426;2022-07-29T08:29:15;9.43;;;4.35;;
62419;SDS011;48460;51.616;5.426;2022-07-29T08:31:41;12.07;;;4.30;;
62419;SDS011;48460;51.616;5.426;2022-07-29T08:34:06;9.73;;;4.38;;
62419;SDS011;48460;51.616;5.426;2022-07-29T08:36:32;8.98;;;4.80;;
62419;SDS011;48460;51.616;5.426;2022-07-29T08:38:58;10.85;;;4.32;;
62419;SDS011;48460;51.616;5.426;2022-07-29T08:41:24;10.30;;;4.40;;
62419;SDS011;48460;51.616;5.426;2022-07-29T08:43:50;10.10;;;4.50;;
62419;SDS011;48460;51.616;5.426;2022-07-29T08:46:17;10.38;;;4.20;;
62419;SDS011;48460;51.616;5.426;2022-07-29T08:48:43;9.38;;;4.18;;
62419;SDS011;48460;51.616;5.426;2022-07-29T08:51:08;12.73;;;4.18;;
62419;SDS011;48460;51.616;5.426;2022-07-29T08:53:40;13.45;;;4.82;;
62419;SDS011;48460;51.616;5.426;2022-07-29T08:56:07;10.52;;;4.35;;
62419;SDS011;48460;51.616;5.426;2022-07-29T08:58:38;8.20;;;4.05;;
62419;SDS011;48460;51.616;5.426;2022-07-29T09:01:04;11.27;;;4.15;;
62419;SDS011;48460;51.616;5.426;2022-07-29T09:03:31;133.20;;;9.48;;
62419;SDS011;48460;51.616;5.426;2022-07-29T09:05:59;34.65;;;4.88;;
62419;SDS011;48460;51.616;5.426;2022-07-29T09:08:26;10.07;;;3.92;;
62419;SDS011;48460;51.616;5.426;2022-07-29T09:10:52;11.60;;;4.35;;
62419;SDS011;48460;51.616;5.426;2022-07-29T09:13:18;6.90;;;4.13;;
62419;SDS011;48460;51.616;5.426;2022-07-29T09:15:44;8.38;;;3.67;;
62419;SDS011;48460;51.616;5.426;2022-07-29T09:18:09;11.13;;;3.90;;
62419;SDS011;48460;51.616;5.426;2022-07-29T09:20:35;9.40;;;3.88;;
62419;SDS011;48460;51.616;5.426;2022-07-29T09:23:19;10.43;;;3.60;;
62419;SDS011;48460;51.616;5.426;2022-07-29T09:25:44;12.18;;;4.35;;
62419;SDS011;48460;51.616;5.426;2022-07-29T09:28:13;10.73;;;4.75;;
62419;SDS011;48460;51.616;5.426;2022-07-29T09:30:54;10.70;;;4.18;;
62419;SDS011;48460;51.616;5.426;2022-07-29T09:33:21;10.85;;;4.47;;
62419;SDS011;48460;51.616;5.426;2022-07-29T09:36:03;13.43;;;4.93;;
62419;SDS011;48460;51.616;5.426;2022-07-29T09:38:31;68.60;;;7.38;;
62419;SDS011;48460;51.616;5.426;2022-07-29T09:40:58;7.55;;;4.30;;
62419;SDS011;48460;51.616;5.426;2022-07-29T09:43:24;9.10;;;3.90;;
62419;SDS011;48460;51.616;5.426;2022-07-29T09:45:50;8.40;;;3.88;;
62419;SDS011;48460;51.616;5.426;2022-07-29T09:48:19;14.95;;;3.80;;
62419;SDS011;48460;51.616;5.426;2022-07-29T09:50:48;7.00;;;3.60;;
62419;SDS011;48460;51.616;5.426;2022-07-29T09:56:00;11.02;;;3.80;;
62419;SDS011;48460;51.616;5.426;2022-07-29T09:58:26;8.63;;;3.95;;
62419;SDS011;48460;51.616;5.426;2022-07-29T10:00:52;8.95;;;3.80;;
62419;SDS011;48460;51.616;5.426;2022-07-29T10:03:18;6.60;;;3.80;;
62419;SDS011;48460;51.616;5.426;2022-07-29T10:05:44;8.35;;;3.60;;
62419;SDS011;48460;51.616;5.426;2022-07-29T10:08:11;6.75;;;3.67;;
62419;SDS011;48460;51.616;5.426;2022-07-29T10:10:41;9.82;;;3.53;;
62419;SDS011;48460;51.616;5.426;2022-07-29T10:13:11;6.07;;;3.30;;
62419;SDS011;48460;51.616;5.426;2022-07-29T10:18:06;6.60;;;3.30;;
62419;SDS011;48460;51.616;5.426;2022-07-29T10:20:33;9.25;;;3.88;;
62419;SDS011;48460;51.616;5.426;2022-07-29T10:22:59;8.95;;;3.95;;
62419;SDS011;48460;51.616;5.426;2022-07-29T10:25:24;11.10;;;3.83;;
62419;SDS011;48460;51.616;5.426;2022-07-29T10:27:51;12.07;;;3.70;;
62419;SDS011;48460;51.616;5.426;2022-07-29T10:30:17;7.85;;;3.90;;
62419;SDS011;48460;51.616;5.426;2022-07-29T10:44:20;8.45;;;3.50;;
62419;SDS011;48460;51.616;5.426;2022-07-29T10:46:47;10.70;;;3.88;;
62419;SDS011;48460;51.616;5.426;2022-07-29T10:49:14;8.55;;;3.75;;
62419;SDS011;48460;51.616;5.426;2022-07-29T10:54:45;7.78;;;3.80;;
62419;SDS011;48460;51.616;5.426;2022-07-29T11:05:17;8.40;;;3.80;;
62419;SDS011;48460;51.616;5.426;2022-07-29T11:10:37;6.75;;;4.00;;
62419;SDS011;48460;51.616;5.426;2022-07-29T11:13:03;7.40;;;3.83;;
62419;SDS011;48460;51.616;5.426;2022-07-29T11:15:28;7.90;;;3.80;;
62419;SDS011;48460;51.616;5.426;2022-07-29T11:18:14;9.60;;;4.22;;
62419;SDS011;48460;51.616;5.426;2022-07-29T11:20:41;8.43;;;4.53;;
62419;SDS011;48460;51.616;5.426;2022-07-29T11:25:44;7.00;;;4.00;;
62419;SDS011;48460;51.616;5.426;2022-07-29T11:28:12;7.97;;;3.88;;
62419;SDS011;48460;51.616;5.426;2022-07-29T11:30:51;9.80;;;3.85;;
62419;SDS011;48460;51.616;5.426;2022-07-29T11:33:27;11.25;;;3.60;;
62419;SDS011;48460;51.616;5.426;2022-07-29T11:38:35;8.63;;;3.35;;
62419;SDS011;48460;51.616;5.426;2022-07-29T11:41:34;7.95;;;3.60;;
62419;SDS011;48460;51.616;5.426;2022-07-29T11:43:57;11.43;;;3.88;;
62419;SDS011;48460;51.616;5.426;2022-07-29T11:49:08;10.05;;;4.10;;
62419;SDS011;48460;51.616;5.426;2022-07-29T11:51:35;9.35;;;3.70;;
62419;SDS011;48460;51.616;5.426;2022-07-29T11:54:04;10.85;;;4.32;;
62419;SDS011;48460;51.616;5.426;2022-07-29T11:56:31;6.75;;;3.58;;
62419;SDS011;48460;51.616;5.426;2022-07-29T11:59:03;8.45;;;3.70;;
62419;SDS011;48460;51.616;5.426;2022-07-29T12:01:29;20.67;;;3.90;;
62419;SDS011;48460;51.616;5.426;2022-07-29T12:04:04;10.55;;;3.70;;
62419;SDS011;48460;51.616;5.426;2022-07-29T12:06:31;7.55;;;3.22;;
62419;SDS011;48460;51.616;5.426;2022-07-29T12:08:57;7.32;;;3.30;;
62419;SDS011;48460;51.616;5.426;2022-07-29T12:11:23;9.40;;;3.40;;
62419;SDS011;48460;51.616;5.426;2022-07-29T12:13:52;5.93;;;2.97;;
62419;SDS011;48460;51.616;5.426;2022-07-29T12:16:21;9.38;;;3.20;;
62419;SDS011;48460;51.616;5.426;2022-07-29T12:18:59;9.35;;;3.65;;
62419;SDS011;48460;51.616;5.426;2022-07-29T12:21:27;7.22;;;3.78;;
62419;SDS011;48460;51.616;5.426;2022-07-29T12:23:54;7.85;;;3.70;;
62419;SDS011;48460;51.616;5.426;2022-07-29T12:26:20;7.60;;;3.50;;
62419;SDS011;48460;51.616;5.426;2022-07-29T12:28:45;8.43;;;3.45;;
62419;SDS011;48460;51.616;5.426;2022-07-29T12:31:14;9.88;;;3.17;;
62419;SDS011;48460;51.616;5.426;2022-07-29T12:33:41;11.63;;;3.60;;
62419;SDS011;48460;51.616;5.426;2022-07-29T12:36:07;5.80;;;3.53;;
62419;SDS011;48460;51.616;5.426;2022-07-29T12:38:36;6.47;;;3.15;;
62419;SDS011;48460;51.616;5.426;2022-07-29T12:41:05;12.35;;;3.38;;
62419;SDS011;48460;51.616;5.426;2022-07-29T12:43:31;8.10;;;3.10;;
62419;SDS011;48460;51.616;5.426;2022-07-29T12:45:57;10.43;;;3.35;;
62419;SDS011;48460;51.616;5.426;2022-07-29T12:48:41;10.97;;;3.60;;
62419;SDS011;48460;51.616;5.426;2022-07-29T12:51:08;8.43;;;3.33;;
62419;SDS011;48460;51.616;5.426;2022-07-29T12:53:35;6.95;;;2.88;;
62419;SDS011;48460;51.616;5.426;2022-07-29T12:56:02;7.43;;;3.55;;
62419;SDS011;48460;51.616;5.426;2022-07-29T12:58:36;9.57;;;3.13;;
62419;SDS011;48460;51.616;5.426;2022-07-29T13:01:07;7.20;;;3.40;;
62419;SDS011;48460;51.616;5.426;2022-07-29T13:03:53;9.88;;;3.30;;
62419;SDS011;48460;51.616;5.426;2022-07-29T13:14:34;11.15;;;3.58;;
62419;SDS011;48460;51.616;5.426;2022-07-29T13:17:17;12.02;;;3.40;;
62419;SDS011;48460;51.616;5.426;2022-07-29T13:19:51;7.25;;;3.40;;
62419;SDS011;48460;51.616;5.426;2022-07-29T13:22:29;7.20;;;3.70;;
62419;SDS011;48460;51.616;5.426;2022-07-29T13:24:55;6.50;;;3.00;;
62419;SDS011;48460;51.616;5.426;2022-07-29T13:27:23;5.18;;;2.80;;
62419;SDS011;48460;51.616;5.426;2022-07-29T13:29:53;7.32;;;3.22;;
62419;SDS011;48460;51.616;5.426;2022-07-29T13:32:22;8.82;;;3.38;;
62419;SDS011;48460;51.616;5.426;2022-07-29T13:34:49;8.60;;;3.20;;
62419;SDS011;48460;51.616;5.426;2022-07-29T13:37:14;8.93;;;3.20;;
62419;SDS011;48460;51.616;5.426;2022-07-29T13:39:41;10.35;;;3.10;;
62419;SDS011;48460;51.616;5.426;2022-07-29T13:42:08;7.65;;;3.35;;
62419;SDS011;48460;51.616;5.426;2022-07-29T13:44:33;7.60;;;3.45;;
62419;SDS011;48460;51.616;5.426;2022-07-29T13:46:59;6.90;;;3.00;;
62419;SDS011;48460;51.616;5.426;2022-07-29T13:49:25;6.30;;;2.75;;
62419;SDS011;48460;51.616;5.426;2022-07-29T13:51:51;9.48;;;3.20;;
62419;SDS011;48460;51.616;5.426;2022-07-29T13:54:17;7.68;;;2.80;;
62419;SDS011;48460;51.616;5.426;2022-07-29T13:56:42;4.82;;;2.88;;
62419;SDS011;48460;51.616;5.426;2022-07-29T13:59:07;6.93;;;2.75;;
62419;SDS011;48460;51.616;5.426;2022-07-29T14:01:34;13.27;;;3.10;;
62419;SDS011;48460;51.616;5.426;2022-07-29T14:04:00;7.03;;;3.00;;
62419;SDS011;48460;51.616;5.426;2022-07-29T14:06:25;10.15;;;3.10;;
62419;SDS011;48460;51.616;5.426;2022-07-29T14:08:50;8.40;;;2.80;;
62419;SDS011;48460;51.616;5.426;2022-07-29T14:11:16;9.68;;;2.95;;
62419;SDS011;48460;51.616;5.426;2022-07-29T14:13:41;7.75;;;3.00;;
62419;SDS011;48460;51.616;5.426;2022-07-29T14:16:07;7.93;;;3.25;;
62419;SDS011;48460;51.616;5.426;2022-07-29T14:18:32;10.80;;;3.22;;
62419;SDS011;48460;51.616;5.426;2022-07-29T14:20:58;7.40;;;3.13;;
62419;SDS011;48460;51.616;5.426;2022-07-29T14:23:23;9.13;;;3.30;;
62419;SDS011;48460;51.616;5.426;2022-07-29T14:25:48;8.57;;;3.00;;
62419;SDS011;48460;51.616;5.426;2022-07-29T14:28:14;8.73;;;3.20;;
62419;SDS011;48460;51.616;5.426;2022-07-29T14:30:39;7.13;;;2.95;;
62419;SDS011;48460;51.616;5.426;2022-07-29T14:33:05;6.78;;;3.20;;
62419;SDS011;48460;51.616;5.426;2022-07-29T14:35:30;7.85;;;3.10;;
62419;SDS011;48460;51.616;5.426;2022-07-29T14:37:55;9.50;;;3.17;;
62419;SDS011;48460;51.616;5.426;2022-07-29T14:40:22;9.13;;;3.47;;
62419;SDS011;48460;51.616;5.426;2022-07-29T14:42:47;7.57;;;2.90;;
62419;SDS011;48460;51.616;5.426;2022-07-29T14:45:12;8.15;;;3.00;;
62419;SDS011;48460;51.616;5.426;2022-07-29T14:47:38;9.68;;;3.17;;
62419;SDS011;48460;51.616;5.426;2022-07-29T14:50:04;7.55;;;2.92;;
62419;SDS011;48460;51.616;5.426;2022-07-29T14:52:31;5.22;;;3.10;;
62419;SDS011;48460;51.616;5.426;2022-07-29T14:54:56;8.85;;;3.47;;
62419;SDS011;48460;51.616;5.426;2022-07-29T14:57:22;7.75;;;3.05;;
62419;SDS011;48460;51.616;5.426;2022-07-29T14:59:47;8.07;;;3.05;;
62419;SDS011;48460;51.616;5.426;2022-07-29T15:02:13;8.98;;;3.10;;
62419;SDS011;48460;51.616;5.426;2022-07-29T15:04:38;7.75;;;2.88;;
62419;SDS011;48460;51.616;5.426;2022-07-29T15:07:04;8.35;;;3.00;;
62419;SDS011;48460;51.616;5.426;2022-07-29T15:09:29;7.00;;;3.05;;
62419;SDS011;48460;51.616;5.426;2022-07-29T15:11:55;7.68;;;3.03;;
62419;SDS011;48460;51.616;5.426;2022-07-29T15:14:20;9.45;;;3.08;;
62419;SDS011;48460;51.616;5.426;2022-07-29T15:16:46;6.28;;;2.97;;
62419;SDS011;48460;51.616;5.426;2022-07-29T15:19:11;6.22;;;2.90;;
62419;SDS011;48460;51.616;5.426;2022-07-29T15:21:37;6.30;;;3.10;;
62419;SDS011;48460;51.616;5.426;2022-07-29T15:24:03;9.55;;;2.92;;
62419;SDS011;48460;51.616;5.426;2022-07-29T15:26:28;9.88;;;3.00;;
62419;SDS011;48460;51.616;5.426;2022-07-29T15:28:54;8.95;;;3.20;;
62419;SDS011;48460;51.616;5.426;2022-07-29T15:31:21;10.90;;;2.90;;
62419;SDS011;48460;51.616;5.426;2022-07-29T15:33:46;7.80;;;3.05;;
62419;SDS011;48460;51.616;5.426;2022-07-29T15:36:12;6.05;;;2.80;;
62419;SDS011;48460;51.616;5.426;2022-07-29T15:38:38;9.40;;;2.90;;
62419;SDS011;48460;51.616;5.426;2022-07-29T15:41:05;8.43;;;2.90;;
62419;SDS011;48460;51.616;5.426;2022-07-29T15:43:31;6.57;;;2.75;;
62419;SDS011;48460;51.616;5.426;2022-07-29T15:45:56;5.35;;;2.78;;
62419;SDS011;48460;51.616;5.426;2022-07-29T15:48:40;6.55;;;2.70;;